createdAt,value
2023-04-29T00:00:14.834Z,11.26
2023-04-29T00:02:42.501Z,11.25
2023-04-29T00:05:09.958Z,11.26
2023-04-29T00:07:37.672Z,11.27
2023-04-29T00:10:05.737Z,11.31
2023-04-29T00:12:33.658Z,11.28
2023-04-29T00:15:03.336Z,11.31
2023-04-29T00:17:32.476Z,11.31
2023-04-29T00:19:59.347Z,11.31
2023-04-29T00:22:26.586Z,11.32
2023-04-29T00:24:53.491Z,11.29
2023-04-29T00:27:20.530Z,11.31
2023-04-29T00:29:47.535Z,11.31
2023-04-29T00:32:14.423Z,11.33
2023-04-29T00:34:41.289Z,11.35
2023-04-29T00:37:08.190Z,11.39
2023-04-29T00:39:35.167Z,11.40
2023-04-29T00:42:04.122Z,11.32
2023-04-29T00:44:31.068Z,11.31
2023-04-29T00:46:59.617Z,11.23
2023-04-29T00:49:28.098Z,11.15
2023-04-29T00:51:56.622Z,11.23
2023-04-29T00:54:23.894Z,11.26
2023-04-29T00:56:50.927Z,11.25
2023-04-29T00:59:18.224Z,11.26
2023-04-29T01:01:45.331Z,11.22
2023-04-29T01:04:14.200Z,11.22
2023-04-29T01:07:03.123Z,11.23
2023-04-29T01:09:49.741Z,11.20
2023-04-29T01:12:23.614Z,11.21
2023-04-29T01:15:05.154Z,11.24
2023-04-29T01:17:52.723Z,11.25
2023-04-29T01:20:20.262Z,11.25
2023-04-29T01:22:47.762Z,11.26
2023-04-29T01:25:14.963Z,11.25
2023-04-29T01:28:15.219Z,11.22
2023-04-29T01:30:59.406Z,11.18
2023-04-29T01:33:35.716Z,11.16
2023-04-29T01:36:14.225Z,11.18
2023-04-29T01:39:03.207Z,11.20
2023-04-29T01:41:43.882Z,11.26
2023-04-29T01:44:19.720Z,11.23
2023-04-29T01:46:50.994Z,11.23
2023-04-29T01:49:22.592Z,11.24
2023-04-29T01:51:49.622Z,11.20
2023-04-29T01:54:16.947Z,11.20
2023-04-29T01:56:45.153Z,11.17
2023-04-29T01:59:22.255Z,11.20
2023-04-29T02:02:12.208Z,11.10
2023-04-29T02:04:46.854Z,11.18
2023-04-29T02:07:13.876Z,11.16
2023-04-29T02:09:41.390Z,11.18
2023-04-29T02:12:11.643Z,11.10
2023-04-29T02:14:38.595Z,11.12
2023-04-29T02:17:06.222Z,11.09
2023-04-29T02:19:33.979Z,11.09
2023-04-29T02:22:01.373Z,11.09
2023-04-29T02:24:28.370Z,11.10
2023-04-29T02:26:56.118Z,11.12
2023-04-29T02:29:23.315Z,11.09
2023-04-29T02:31:53.625Z,11.07
2023-04-29T02:34:21.720Z,11.02
2023-04-29T02:36:48.593Z,10.95
2023-04-29T02:39:15.530Z,10.91
2023-04-29T02:41:42.970Z,10.90
2023-04-29T02:44:12.631Z,10.90
2023-04-29T02:46:41.818Z,10.91
2023-04-29T02:49:28.796Z,10.91
2023-04-29T02:52:15.637Z,10.84
2023-04-29T02:54:42.877Z,10.85
2023-04-29T02:57:10.605Z,10.84
2023-04-29T02:59:38.133Z,10.85
2023-04-29T03:02:05.141Z,10.84
2023-04-29T03:04:32.118Z,10.87
2023-04-29T03:06:59.349Z,10.87
2023-04-29T03:09:28.043Z,10.87
2023-04-29T03:11:55.448Z,10.83
2023-04-29T03:14:22.696Z,10.83
2023-04-29T03:16:50.279Z,10.85
2023-04-29T03:19:17.859Z,10.84
2023-04-29T03:21:45.603Z,10.85
2023-04-29T03:24:13.515Z,10.84
2023-04-29T03:26:40.724Z,10.80
2023-04-29T03:29:07.720Z,10.85
2023-04-29T03:31:35.268Z,10.80
2023-04-29T03:34:03.608Z,10.83
2023-04-29T03:36:33.583Z,10.81
2023-04-29T03:39:04.397Z,10.79
2023-04-29T03:41:31.509Z,10.78
2023-04-29T03:44:01.381Z,10.78
2023-04-29T03:46:31.462Z,10.82
2023-04-29T03:48:58.502Z,10.80
2023-04-29T03:51:25.956Z,10.83
2023-04-29T03:53:59.301Z,10.82
2023-04-29T03:56:26.549Z,10.80
2023-04-29T03:58:54.311Z,10.84
2023-04-29T04:01:23.764Z,10.84
2023-04-29T04:03:52.698Z,10.84
2023-04-29T04:06:21.014Z,10.85
2023-04-29T04:08:48.470Z,10.84
2023-04-29T04:11:20.454Z,10.85
2023-04-29T04:13:52.505Z,10.86
2023-04-29T04:16:19.985Z,10.83
2023-04-29T04:18:46.949Z,10.85
2023-04-29T04:21:14.329Z,10.85
2023-04-29T04:23:45.789Z,10.88
2023-04-29T04:26:17.089Z,10.86
2023-04-29T04:29:02.820Z,10.86
2023-04-29T04:31:35.278Z,10.85
2023-04-29T04:34:02.544Z,10.87
2023-04-29T04:36:32.971Z,10.90
2023-04-29T04:39:01.622Z,10.94
2023-04-29T04:41:32.146Z,10.94
2023-04-29T04:43:59.712Z,10.98
2023-04-29T04:46:38.567Z,10.96
2023-04-29T04:49:12.155Z,10.96
2023-04-29T04:51:45.852Z,10.98
2023-04-29T04:54:13.824Z,11.01
2023-04-29T04:56:41.419Z,11.01
2023-04-29T04:59:08.664Z,11.02
2023-04-29T05:01:37.978Z,11.05
2023-04-29T05:04:05.457Z,11.05
2023-04-29T05:06:32.480Z,11.08
2023-04-29T05:09:00.148Z,11.07
2023-04-29T05:11:28.604Z,11.08
2023-04-29T05:14:08.135Z,11.08
2023-04-29T05:16:35.383Z,11.09
2023-04-29T05:19:02.841Z,11.10
2023-04-29T05:21:48.363Z,11.10
2023-04-29T05:24:16.472Z,11.09
2023-04-29T05:26:44.644Z,11.12
2023-04-29T05:29:12.423Z,11.11
2023-04-29T05:31:49.366Z,11.11
2023-04-29T05:34:16.527Z,11.12
2023-04-29T05:36:43.508Z,11.14
2023-04-29T05:39:13.971Z,11.16
2023-04-29T05:41:42.580Z,11.16
2023-04-29T05:44:20.748Z,11.22
2023-04-29T05:46:48.983Z,11.21
2023-04-29T05:49:17.097Z,11.20
2023-04-29T05:51:44.122Z,11.15
2023-04-29T05:54:11.124Z,11.07
2023-04-29T05:56:38.184Z,11.02
2023-04-29T05:59:05.101Z,10.96
2023-04-29T06:01:33.236Z,10.97
2023-04-29T06:04:01.003Z,11.04
2023-04-29T06:06:35.665Z,10.94
2023-04-29T06:09:19.854Z,10.90
2023-04-29T06:11:54.256Z,10.88
2023-04-29T06:14:21.499Z,10.93
2023-04-29T06:16:49.884Z,10.88
2023-04-29T06:19:17.859Z,10.93
2023-04-29T06:21:45.414Z,10.91
2023-04-29T06:24:12.577Z,10.89
2023-04-29T06:26:39.991Z,10.89
2023-04-29T06:29:07.016Z,10.85
2023-04-29T06:31:35.927Z,10.95
2023-04-29T06:34:04.435Z,11.00
2023-04-29T06:36:32.709Z,10.99
2023-04-29T06:39:09.936Z,10.96
2023-04-29T06:41:49.423Z,10.96
2023-04-29T06:44:46.043Z,10.91
2023-04-29T06:47:48.538Z,10.87
2023-04-29T06:50:27.096Z,10.84
2023-04-29T06:52:58.393Z,10.92
2023-04-29T06:55:26.884Z,10.91
2023-04-29T06:57:54.311Z,10.91
2023-04-29T07:00:23.133Z,10.85
2023-04-29T07:02:50.894Z,10.78
2023-04-29T07:05:18.751Z,10.80
2023-04-29T07:07:45.675Z,10.80
2023-04-29T07:10:12.579Z,10.79
2023-04-29T07:12:40.701Z,10.80
2023-04-29T07:15:08.204Z,10.77
2023-04-29T07:17:35.205Z,10.77
2023-04-29T07:20:02.453Z,10.74
2023-04-29T07:22:29.446Z,10.70
2023-04-29T07:24:57.390Z,10.73
2023-04-29T07:27:25.345Z,10.78
2023-04-29T07:29:53.938Z,10.71
2023-04-29T07:32:21.087Z,10.70
2023-04-29T07:34:48.024Z,10.64
2023-04-29T07:37:15.396Z,10.57
2023-04-29T07:39:42.980Z,10.61
2023-04-29T07:42:10.644Z,10.64
2023-04-29T07:44:37.900Z,10.65
2023-04-29T07:47:05.159Z,10.58
2023-04-29T07:49:33.253Z,10.55
2023-04-29T07:52:01.703Z,10.57
2023-04-29T07:54:28.619Z,10.49
2023-04-29T07:56:58.374Z,10.53
2023-04-29T07:59:25.435Z,10.51
2023-04-29T08:01:53.131Z,10.51
2023-04-29T08:04:20.205Z,10.50
2023-04-29T08:06:58.372Z,10.52
2023-04-29T08:09:25.376Z,10.47
2023-04-29T08:11:52.563Z,10.54
2023-04-29T08:14:25.585Z,10.56
2023-04-29T08:16:52.555Z,10.57
2023-04-29T08:19:19.382Z,10.60
2023-04-29T08:21:46.501Z,10.62
2023-04-29T08:24:15.243Z,10.53
2023-04-29T08:26:42.698Z,10.46
2023-04-29T08:29:09.704Z,10.47
2023-04-29T08:31:36.900Z,10.39
2023-04-29T08:34:06.942Z,10.45
2023-04-29T08:36:34.449Z,10.40
2023-04-29T08:39:01.888Z,10.37
2023-04-29T08:41:28.966Z,10.35
2023-04-29T08:43:56.008Z,10.28
2023-04-29T08:46:26.060Z,10.30
2023-04-29T08:48:53.313Z,10.32
2023-04-29T08:51:21.473Z,10.18
2023-04-29T08:53:48.440Z,10.05
2023-04-29T08:56:22.262Z,9.98
2023-04-29T08:58:54.990Z,9.91
2023-04-29T09:01:23.226Z,9.89
2023-04-29T09:04:22.239Z,9.84
2023-04-29T09:06:49.576Z,9.83
2023-04-29T09:09:18.614Z,9.72
2023-04-29T09:11:48.029Z,9.68
2023-04-29T09:14:15.564Z,9.60
2023-04-29T09:16:42.843Z,9.63
2023-04-29T09:19:09.810Z,9.49
2023-04-29T09:21:36.976Z,9.47
2023-04-29T09:24:04.473Z,9.48
2023-04-29T09:26:44.079Z,9.46
2023-04-29T09:29:16.494Z,9.48
2023-04-29T09:31:43.705Z,9.42
2023-04-29T09:34:12.763Z,9.46
2023-04-29T09:36:46.646Z,9.44
2023-04-29T09:39:21.301Z,9.48
2023-04-29T09:41:54.845Z,9.49
2023-04-29T09:44:25.284Z,9.59
2023-04-29T09:47:05.157Z,9.62
2023-04-29T09:49:39.207Z,9.72
2023-04-29T09:52:25.439Z,9.78
2023-04-29T09:54:54.388Z,9.80
2023-04-29T09:57:26.111Z,9.78
2023-04-29T09:59:54.509Z,9.78
2023-04-29T10:02:27.157Z,9.72
2023-04-29T10:04:58.059Z,9.72
2023-04-29T10:07:26.892Z,9.73
2023-04-29T10:09:56.591Z,9.78
2023-04-29T10:12:24.889Z,9.76
2023-04-29T10:15:23.825Z,9.84
2023-04-29T10:17:56.050Z,9.88
2023-04-29T10:20:25.478Z,9.80
2023-04-29T10:22:57.326Z,9.82
2023-04-29T10:25:25.219Z,9.82
2023-04-29T10:27:56.798Z,9.91
2023-04-29T10:30:24.036Z,9.99
2023-04-29T10:32:52.969Z,10.08
2023-04-29T10:35:25.930Z,10.07
2023-04-29T10:37:53.830Z,10.11
2023-04-29T10:40:56.215Z,10.22
2023-04-29T10:43:29.686Z,10.38
2023-04-29T10:46:22.910Z,10.62
2023-04-29T10:48:55.608Z,10.80
2023-04-29T10:51:44.711Z,10.93
2023-04-29T10:54:20.608Z,11.01
2023-04-29T10:56:50.623Z,11.13
2023-04-29T10:59:33.759Z,11.03
2023-04-29T11:02:00.861Z,10.97
2023-04-29T11:04:27.908Z,10.95
2023-04-29T11:06:59.313Z,10.94
2023-04-29T11:09:27.841Z,10.88
2023-04-29T11:12:08.695Z,10.86
2023-04-29T11:14:42.080Z,10.74
2023-04-29T11:17:10.551Z,10.81
2023-04-29T11:19:45.706Z,10.95
2023-04-29T11:22:18.526Z,11.07
2023-04-29T11:25:03.089Z,11.23
2023-04-29T11:27:40.526Z,11.29
2023-04-29T11:30:08.138Z,11.37
2023-04-29T11:32:38.254Z,11.37
2023-04-29T11:35:12.651Z,11.28
2023-04-29T11:37:41.103Z,11.41
2023-04-29T11:40:09.029Z,11.51
2023-04-29T11:42:37.184Z,11.52
2023-04-29T11:45:04.244Z,11.58
2023-04-29T11:47:32.098Z,11.60
2023-04-29T11:50:07.178Z,11.57
2023-04-29T11:52:37.370Z,11.58
2023-04-29T11:55:05.486Z,11.59
2023-04-29T11:57:32.818Z,11.64
2023-04-29T11:59:59.957Z,11.70
2023-04-29T12:02:32.058Z,11.72
2023-04-29T12:05:02.075Z,11.73
2023-04-29T12:07:29.443Z,11.75
2023-04-29T12:10:00.600Z,11.75
2023-04-29T12:12:29.686Z,11.67
2023-04-29T12:14:57.194Z,11.57
2023-04-29T12:17:24.747Z,11.42
2023-04-29T12:19:51.835Z,11.41
2023-04-29T12:22:20.079Z,11.40
2023-04-29T12:24:47.271Z,11.50
2023-04-29T12:27:14.195Z,11.61
2023-04-29T12:29:41.504Z,11.64
2023-04-29T12:32:17.982Z,11.63
2023-04-29T12:34:47.163Z,11.66
2023-04-29T12:37:15.633Z,11.64
2023-04-29T12:39:42.493Z,11.68
2023-04-29T12:42:15.355Z,11.71
2023-04-29T12:44:42.236Z,11.74
2023-04-29T12:47:10.944Z,11.76
2023-04-29T12:49:41.880Z,11.74
2023-04-29T12:52:11.238Z,11.80
2023-04-29T12:54:50.759Z,11.80
2023-04-29T12:57:19.253Z,11.91
2023-04-29T12:59:46.201Z,11.93
2023-04-29T13:02:13.518Z,11.91
2023-04-29T13:04:42.823Z,11.99
2023-04-29T13:07:10.928Z,11.93
2023-04-29T13:09:38.399Z,11.95
2023-04-29T13:12:05.963Z,11.96
2023-04-29T13:14:32.850Z,11.99
2023-04-29T13:17:00.070Z,12.09
2023-04-29T13:19:39.701Z,12.11
2023-04-29T13:22:14.419Z,12.02
2023-04-29T13:24:41.995Z,12.06
2023-04-29T13:27:09.222Z,11.98
2023-04-29T13:29:36.225Z,11.99
2023-04-29T13:32:03.573Z,12.00
2023-04-29T13:34:31.350Z,12.05
2023-04-29T13:36:58.534Z,12.02
2023-04-29T13:39:25.727Z,12.07
2023-04-29T13:41:58.183Z,12.09
2023-04-29T13:44:33.304Z,12.12
2023-04-29T13:47:06.488Z,12.11
2023-04-29T13:52:58.373Z,12.18
2023-04-29T13:55:14.818Z,12.16
2023-04-29T14:00:25.128Z,12.21
2023-04-29T14:05:26.878Z,12.27
2023-04-29T14:07:53.927Z,12.26
2023-04-29T14:10:20.928Z,12.34
2023-04-29T14:12:48.904Z,12.37
2023-04-29T14:15:16.619Z,12.40
2023-04-29T14:17:43.961Z,12.40
2023-04-29T14:20:11.418Z,12.42
2023-04-29T14:22:38.321Z,12.44
2023-04-29T14:25:06.907Z,12.44
2023-04-29T14:27:35.954Z,12.42
2023-04-29T14:30:02.914Z,12.54
2023-04-29T14:32:30.675Z,12.61
2023-04-29T14:34:57.540Z,12.83
2023-04-29T14:37:24.407Z,12.97
2023-04-29T14:39:51.446Z,13.02
2023-04-29T14:42:19.004Z,13.09
2023-04-29T14:44:45.895Z,13.31
2023-04-29T14:47:12.730Z,13.40
2023-04-29T14:49:40.006Z,13.61
2023-04-29T14:52:06.940Z,13.80
2023-04-29T14:54:33.883Z,13.76
2023-04-29T14:57:00.836Z,13.72
2023-04-29T14:59:30.451Z,13.53
2023-04-29T15:01:57.546Z,13.47
2023-04-29T15:04:26.527Z,13.27
2023-04-29T15:06:55.888Z,13.18
2023-04-29T15:09:23.676Z,13.14
2023-04-29T15:11:50.572Z,13.14
2023-04-29T15:14:17.626Z,13.09
2023-04-29T15:16:44.874Z,13.04
2023-04-29T15:19:11.875Z,13.04
2023-04-29T15:21:38.701Z,13.07
2023-04-29T15:24:07.560Z,13.11
2023-04-29T15:26:34.484Z,13.15
2023-04-29T15:29:01.609Z,13.11
2023-04-29T15:31:29.405Z,13.06
2023-04-29T15:33:57.729Z,13.02
2023-04-29T15:36:33.688Z,13.05
2023-04-29T15:39:00.807Z,13.04
2023-04-29T15:41:27.929Z,12.98
2023-04-29T15:43:56.811Z,12.94
2023-04-29T15:46:24.163Z,13.00
2023-04-29T15:48:51.713Z,13.04
2023-04-29T15:51:19.231Z,13.10
2023-04-29T15:53:46.224Z,13.06
2023-04-29T15:56:13.538Z,13.44
2023-04-29T15:58:40.469Z,13.44
2023-04-29T16:01:07.723Z,13.34
2023-04-29T16:03:35.111Z,13.26
2023-04-29T16:06:02.085Z,13.22
2023-04-29T16:08:29.429Z,13.16
2023-04-29T16:10:56.314Z,13.17
2023-04-29T16:13:23.589Z,13.15
2023-04-29T16:15:50.554Z,13.13
2023-04-29T16:18:18.156Z,13.12
2023-04-29T16:20:45.792Z,13.06
2023-04-29T16:23:12.884Z,13.04
2023-04-29T16:25:41.250Z,13.11
2023-04-29T16:28:08.131Z,13.17
2023-04-29T16:30:36.454Z,13.41
2023-04-29T16:33:03.449Z,14.05
2023-04-29T16:35:31.154Z,14.61
2023-04-29T16:37:58.577Z,14.90
2023-04-29T16:40:25.776Z,15.36
2023-04-29T16:42:53.679Z,15.88
2023-04-29T16:45:23.620Z,16.21
2023-04-29T16:47:51.066Z,16.18
2023-04-29T16:50:18.370Z,16.40
2023-04-29T16:52:45.635Z,16.42
2023-04-29T16:55:13.339Z,16.43
2023-04-29T16:57:40.385Z,16.61
2023-04-29T17:00:11.529Z,16.64
2023-04-29T17:02:40.644Z,16.72
2023-04-29T17:05:09.272Z,16.61
2023-04-29T17:07:37.230Z,16.57
2023-04-29T17:10:05.156Z,16.35
2023-04-29T17:12:33.352Z,16.17
2023-04-29T17:15:00.496Z,16.11
2023-04-29T17:17:27.470Z,15.92
2023-04-29T17:19:55.786Z,15.84
2023-04-29T17:22:25.651Z,15.74
2023-04-29T17:24:53.182Z,15.67
2023-04-29T17:27:20.545Z,15.70
2023-04-29T17:29:47.566Z,15.26
2023-04-29T17:32:17.869Z,15.02
2023-04-29T17:34:45.177Z,14.75
2023-04-29T17:37:12.070Z,14.32
2023-04-29T17:39:42.519Z,14.06
2023-04-29T17:42:09.400Z,13.80
2023-04-29T17:44:39.426Z,13.63
2023-04-29T17:47:17.439Z,13.48
2023-04-29T17:49:44.632Z,13.37
2023-04-29T17:52:12.070Z,13.42
2023-04-29T17:54:40.446Z,13.50
2023-04-29T17:57:08.979Z,13.63
2023-04-29T17:59:35.923Z,13.67
2023-04-29T18:02:02.897Z,13.65
2023-04-29T18:04:29.894Z,13.59
2023-04-29T18:06:56.794Z,13.51
2023-04-29T18:09:23.976Z,13.44
2023-04-29T18:11:51.908Z,13.36
2023-04-29T18:14:18.942Z,13.18
2023-04-29T18:16:46.060Z,13.08
2023-04-29T18:19:12.954Z,12.98
2023-04-29T18:21:40.032Z,12.88
2023-04-29T18:24:07.207Z,12.82
2023-04-29T18:26:34.505Z,12.71
2023-04-29T18:29:01.418Z,12.66
2023-04-29T18:31:29.130Z,12.58
2023-04-29T18:33:56.300Z,12.54
2023-04-29T18:36:24.102Z,12.46
2023-04-29T18:38:51.306Z,12.42
2023-04-29T18:41:18.354Z,12.37
2023-04-29T18:43:46.486Z,12.32
2023-04-29T18:46:14.322Z,12.28
2023-04-29T18:48:44.696Z,12.22
2023-04-29T18:51:12.516Z,12.16
2023-04-29T18:53:39.489Z,12.12
2023-04-29T18:56:06.748Z,12.13
2023-04-29T18:58:33.612Z,12.05
2023-04-29T19:01:04.897Z,11.96
2023-04-29T19:03:32.207Z,11.92
2023-04-29T19:06:00.210Z,11.89
2023-04-29T19:08:27.354Z,11.82
2023-04-29T19:10:54.758Z,11.80
2023-04-29T19:13:21.847Z,11.73
2023-04-29T19:15:51.389Z,11.73
2023-04-29T19:18:20.389Z,11.65
2023-04-29T19:20:47.479Z,11.56
2023-04-29T19:23:14.739Z,11.54
2023-04-29T19:25:41.734Z,11.50
2023-04-29T19:28:08.705Z,11.43
2023-04-29T19:30:39.859Z,11.42
2023-04-29T19:33:07.099Z,11.39
2023-04-29T19:35:34.854Z,11.30
2023-04-29T19:38:04.676Z,11.26
2023-04-29T19:40:31.824Z,11.23
2023-04-29T19:42:59.304Z,11.25
2023-04-29T19:45:26.668Z,11.22
2023-04-29T19:47:55.344Z,11.19
2023-04-29T19:50:23.772Z,11.10
2023-04-29T19:52:52.112Z,11.12
2023-04-29T19:55:19.242Z,11.09
2023-04-29T19:57:47.850Z,10.91
2023-04-29T20:00:18.324Z,10.86
2023-04-29T20:02:50.019Z,10.60
2023-04-29T20:05:17.337Z,10.69
2023-04-29T20:07:48.994Z,10.64
2023-04-29T20:10:16.609Z,10.62
2023-04-29T20:12:43.783Z,10.61
2023-04-29T20:15:12.836Z,10.65
2023-04-29T20:17:39.755Z,10.61
2023-04-29T20:20:09.384Z,10.63
2023-04-29T20:22:36.699Z,10.50
2023-04-29T20:25:04.567Z,10.51
2023-04-29T20:27:31.570Z,10.42
2023-04-29T20:29:58.808Z,10.44
2023-04-29T20:32:26.462Z,10.35
2023-04-29T20:34:54.318Z,10.45
2023-04-29T20:37:21.360Z,10.55
2023-04-29T20:39:48.498Z,10.54
2023-04-29T20:42:15.635Z,10.52
2023-04-29T20:44:43.971Z,10.44
2023-04-29T20:47:11.036Z,10.37
2023-04-29T20:49:37.977Z,10.26
2023-04-29T20:52:06.608Z,10.17
2023-04-29T20:54:34.180Z,10.11
2023-04-29T20:57:01.862Z,10.12
2023-04-29T20:59:30.223Z,10.12
2023-04-29T21:01:57.294Z,10.26
2023-04-29T21:04:24.755Z,10.33
2023-04-29T21:06:52.884Z,10.32
2023-04-29T21:09:20.776Z,10.25
2023-04-29T21:11:48.532Z,10.12
2023-04-29T21:14:15.511Z,10.10
2023-04-29T21:16:45.465Z,10.14
2023-04-29T21:19:12.628Z,10.10
2023-04-29T21:21:39.501Z,10.09
2023-04-29T21:24:06.866Z,10.09
2023-04-29T21:26:34.773Z,10.07
2023-04-29T21:29:01.663Z,10.00
2023-04-29T21:31:30.345Z,9.92
2023-04-29T21:33:57.805Z,9.90
2023-04-29T21:36:24.648Z,9.88
2023-04-29T21:38:53.380Z,9.86
2023-04-29T21:41:29.214Z,9.88
2023-04-29T21:43:58.907Z,9.80
2023-04-29T21:46:29.992Z,9.72
2023-04-29T21:48:59.898Z,9.61
2023-04-29T21:51:28.391Z,9.59
2023-04-29T21:53:55.481Z,9.64
2023-04-29T21:56:24.784Z,9.61
2023-04-29T21:58:51.770Z,9.53
2023-04-29T22:01:40.123Z,9.47
2023-04-29T22:04:07.146Z,9.51
2023-04-29T22:06:34.879Z,9.47
2023-04-29T22:09:02.413Z,9.48
2023-04-29T22:11:29.650Z,9.49
2023-04-29T22:13:56.961Z,9.51
2023-04-29T22:16:23.999Z,9.43
2023-04-29T22:18:51.653Z,9.35
2023-04-29T22:21:18.963Z,9.39
2023-04-29T22:23:47.168Z,9.44
2023-04-29T22:26:14.357Z,9.38
2023-04-29T22:28:41.899Z,9.30
2023-04-29T22:31:08.830Z,9.25
2023-04-29T22:33:35.953Z,9.15
2023-04-29T22:36:05.498Z,9.09
2023-04-29T22:38:32.480Z,9.05
2023-04-29T22:40:59.436Z,8.93
2023-04-29T22:43:26.392Z,8.83
2023-04-29T22:45:54.627Z,8.76
2023-04-29T22:48:21.914Z,8.68
2023-04-29T22:50:52.849Z,8.66
2023-04-29T22:53:20.713Z,8.57
2023-04-29T22:55:55.047Z,8.46
2023-04-29T22:58:25.138Z,8.40
2023-04-29T23:00:54.626Z,8.33
2023-04-29T23:03:21.679Z,8.37
2023-04-29T23:05:49.037Z,8.39
2023-04-29T23:08:16.164Z,8.32
2023-04-29T23:10:49.229Z,8.33
2023-04-29T23:13:17.398Z,8.28
2023-04-29T23:15:45.227Z,8.33
2023-04-29T23:18:13.212Z,8.39
2023-04-29T23:20:40.402Z,8.37
2023-04-29T23:23:07.345Z,8.32
2023-04-29T23:25:35.124Z,8.30
2023-04-29T23:28:02.188Z,8.19
2023-04-29T23:30:29.103Z,8.11
2023-04-29T23:32:56.564Z,8.16
2023-04-29T23:35:23.528Z,8.12
2023-04-29T23:37:50.495Z,8.12
2023-04-29T23:40:19.323Z,8.15
2023-04-29T23:42:46.645Z,8.19
2023-04-29T23:45:13.605Z,8.24
2023-04-29T23:47:40.655Z,8.27
2023-04-29T23:50:08.093Z,8.31
2023-04-29T23:52:35.261Z,8.21
2023-04-29T23:55:03.622Z,8.14
2023-04-29T23:57:30.901Z,8.15
2023-04-29T23:59:57.835Z,8.25
